Time;durP1;ratioP1;P1;durP2;ratioP2;P2;SDS_P1;SDS_P2;PMS_P1;PMS_P2;Temp;Humidity;BMP_temperature;BMP_pressure;BME280_temperature;BME280_humidity;BME280_pressure;Samples;Min_cycle;Max_cycle;Signal;HPM_P1;HPM_P2
2021/06/02 00:00:01;;;;;;;3.63;3.00;;;16.60;99.90;;;;;;5088947;28;20210;-74
2021/06/02 00:02:28;;;;;;;5.07;3.80;;;16.50;99.90;;;;;;5089166;28;20726;-76
2021/06/02 00:04:54;;;;;;;4.07;3.28;;;16.50;99.90;;;;;;5079448;28;20240;-79
2021/06/02 00:07:23;;;;;;;5.93;4.00;;;16.60;99.90;;;;;;5088155;28;20232;-79
2021/06/02 00:09:52;;;;;;;5.70;3.55;;;16.60;99.90;;;;;;5086804;28;20204;-79
2021/06/02 00:12:21;;;;;;;5.18;3.40;;;16.50;99.90;;;;;;5089210;28;20201;-77
2021/06/02 00:14:48;;;;;;;6.25;3.97;;;16.50;99.90;;;;;;5087631;28;20198;-77
2021/06/02 00:17:16;;;;;;;5.22;3.67;;;16.50;99.90;;;;;;5089236;28;20213;-83
2021/06/02 00:19:43;;;;;;;6.22;3.65;;;16.50;99.90;;;;;;5089557;28;20384;-79
2021/06/02 00:22:09;;;;;;;3.72;3.05;;;16.50;99.90;;;;;;5085173;28;20240;-75
2021/06/02 00:24:38;;;;;;;4.25;3.05;;;16.50;99.90;;;;;;5089489;28;20281;-77
2021/06/02 00:27:06;;;;;;;4.75;3.28;;;16.50;99.90;;;;;;5088932;28;20254;-76
2021/06/02 00:29:36;;;;;;;6.15;3.35;;;16.60;99.90;;;;;;5084370;28;20216;-75
2021/06/02 00:32:04;;;;;;;5.63;3.47;;;16.70;99.90;;;;;;5086412;28;20615;-74
2021/06/02 00:34:31;;;;;;;3.47;3.17;;;16.70;99.90;;;;;;5084838;28;20202;-74
2021/06/02 00:37:00;;;;;;;3.88;2.47;;;16.80;99.90;;;;;;5087421;28;20602;-75
2021/06/02 00:39:26;;;;;;;3.78;3.35;;;16.80;99.90;;;;;;5086210;28;20209;-74
2021/06/02 00:41:55;;;;;;;3.50;2.90;;;16.80;99.90;;;;;;5088460;28;20225;-76
2021/06/02 00:44:22;;;;;;;4.57;2.88;;;16.90;99.90;;;;;;5088451;28;20632;-74
2021/06/02 00:46:51;;;;;;;4.60;2.75;;;16.90;99.90;;;;;;5070860;28;20591;-74
2021/06/02 00:49:22;;;;;;;3.72;3.45;;;16.90;99.90;;;;;;5083503;28;20205;-75
2021/06/02 00:51:50;;;;;;;3.92;3.63;;;16.90;99.90;;;;;;5086962;28;20208;-76
2021/06/02 00:54:17;;;;;;;5.47;3.58;;;16.90;99.90;;;;;;5086631;28;20573;-76
2021/06/02 00:56:49;;;;;;;4.30;3.33;;;16.90;99.90;;;;;;5087541;28;20206;-75
2021/06/02 00:59:18;;;;;;;3.90;3.47;;;16.90;99.90;;;;;;5084755;28;20204;-75
2021/06/02 01:01:46;;;;;;;3.33;3.03;;;16.90;99.90;;;;;;5086596;28;20207;-76
2021/06/02 01:04:16;;;;;;;4.63;3.42;;;16.90;99.90;;;;;;5085275;28;20205;-76
2021/06/02 01:06:45;;;;;;;5.35;3.55;;;16.90;99.90;;;;;;5087968;28;20202;-75
2021/06/02 01:09:12;;;;;;;4.63;4.22;;;16.90;99.90;;;;;;5087731;28;20259;-76
2021/06/02 01:11:42;;;;;;;3.03;2.72;;;16.90;99.90;;;;;;5088661;28;20211;-75
2021/06/02 01:14:09;;;;;;;5.10;4.05;;;16.90;99.90;;;;;;5083522;28;20723;-75
2021/06/02 01:16:37;;;;;;;3.70;3.40;;;16.90;99.90;;;;;;5083734;28;20210;-76
2021/06/02 01:19:04;;;;;;;5.20;3.25;;;16.90;99.90;;;;;;5085957;28;20205;-78
2021/06/02 01:21:33;;;;;;;6.57;4.07;;;17.00;99.90;;;;;;5081345;28;20209;-76
2021/06/02 01:24:01;;;;;;;5.68;3.22;;;17.00;99.90;;;;;;5088254;28;20213;-76
2021/06/02 01:26:30;;;;;;;8.48;4.50;;;17.00;99.90;;;;;;5085235;28;20197;-74
2021/06/02 01:28:58;;;;;;;4.32;3.83;;;17.00;99.90;;;;;;5086507;28;20208;-76
2021/06/02 01:31:44;;;;;;;3.58;3.28;;;17.00;99.90;;;;;;5084484;28;20296;-75
2021/06/02 01:34:27;;;;;;;8.75;4.18;;;17.00;99.90;;;;;;5086986;28;20194;-75
2021/06/02 01:37:15;;;;;;;4.15;3.35;;;17.00;99.90;;;;;;5081711;28;20198;-74
2021/06/02 01:40:08;;;;;;;6.40;4.47;;;17.00;99.90;;;;;;5084573;28;20259;-74
2021/06/02 01:42:51;;;;;;;4.05;3.58;;;17.00;99.90;;;;;;5088186;28;20224;-75
2021/06/02 01:45:44;;;;;;;6.63;3.72;;;17.00;99.90;;;;;;5085410;28;20202;-74
2021/06/02 01:48:35;;;;;;;4.30;3.53;;;17.10;99.90;;;;;;5088515;28;20251;-75
2021/06/02 01:51:35;;;;;;;6.05;4.15;;;17.10;99.90;;;;;;5088649;28;20259;-75
2021/06/02 01:54:22;;;;;;;6.85;4.22;;;17.00;99.90;;;;;;5088675;28;20210;-75
2021/06/02 01:57:21;;;;;;;4.47;3.92;;;17.10;99.90;;;;;;5087328;28;20197;-75
2021/06/02 02:00:28;;;;;;;4.78;4.22;;;17.00;99.90;;;;;;5090306;28;20224;-75
2021/06/02 02:03:26;;;;;;;4.70;3.47;;;17.00;99.90;;;;;;5085899;28;20644;-74
2021/06/02 02:06:46;;;;;;;5.90;4.18;;;17.00;99.90;;;;;;5091824;28;20653;-77
2021/06/02 02:09:19;;;;;;;7.32;4.13;;;17.00;99.90;;;;;;5046964;28;20203;-78
2021/06/02 02:11:45;;;;;;;6.28;3.63;;;17.00;99.90;;;;;;5046571;28;20210;-79
2021/06/02 02:14:42;;;;;;;7.50;4.68;;;17.00;99.90;;;;;;5065405;28;20205;-78
2021/06/02 02:17:28;;;;;;;4.53;4.10;;;17.00;99.90;;;;;;5088178;28;20255;-77
2021/06/02 02:20:03;;;;;;;5.05;4.07;;;17.00;99.90;;;;;;5091150;28;20217;-82
2021/06/02 02:23:13;;;;;;;10.65;5.05;;;17.00;99.90;;;;;;5089765;28;20273;-77
2021/06/02 02:25:48;;;;;;;5.97;3.72;;;16.90;99.90;;;;;;5085841;28;20284;-77
2021/06/02 02:28:30;;;;;;;6.07;4.68;;;17.00;99.90;;;;;;5089206;28;20219;-78
2021/06/02 02:31:02;;;;;;;7.78;3.95;;;17.00;99.90;;;;;;5087077;28;20194;-77
2021/06/02 02:33:43;;;;;;;7.43;5.03;;;17.00;99.90;;;;;;5089426;28;20237;-76
2021/06/02 02:36:15;;;;;;;7.25;3.67;;;17.00;99.90;;;;;;5088333;28;20204;-77
2021/06/02 02:39:01;;;;;;;6.05;3.95;;;17.00;99.90;;;;;;5087433;28;20558;-77
2021/06/02 02:41:46;;;;;;;6.35;4.15;;;17.10;99.90;;;;;;5090315;28;20216;-76
2021/06/02 02:44:32;;;;;;;5.10;4.07;;;17.10;99.90;;;;;;5090879;28;20205;-77
2021/06/02 02:47:08;;;;;;;5.05;3.83;;;17.10;99.90;;;;;;5085138;28;20209;-77
2021/06/02 02:49:46;;;;;;;4.70;4.07;;;17.10;99.90;;;;;;5087212;28;20214;-77
2021/06/02 02:52:21;;;;;;;7.50;3.88;;;17.10;99.90;;;;;;5088665;28;20258;-79
2021/06/02 02:54:57;;;;;;;4.78;3.90;;;17.10;99.90;;;;;;5088670;28;20633;-77
2021/06/02 02:57:33;;;;;;;6.25;4.25;;;17.10;99.90;;;;;;5087517;28;20703;-78
2021/06/02 03:00:05;;;;;;;6.32;4.38;;;17.10;99.90;;;;;;5088636;28;20219;-78
2021/06/02 03:02:44;;;;;;;5.15;3.95;;;17.10;99.90;;;;;;5089280;28;20217;-77
2021/06/02 03:05:15;;;;;;;6.30;4.22;;;17.10;99.90;;;;;;5089144;28;20330;-79
2021/06/02 03:07:50;;;;;;;6.15;4.20;;;17.10;99.90;;;;;;5090614;28;20792;-80
2021/06/02 03:10:18;;;;;;;4.68;4.28;;;17.10;99.90;;;;;;5091061;28;20207;-80
2021/06/02 03:12:58;;;;;;;4.07;3.67;;;17.00;99.90;;;;;;5088463;28;20216;-79
2021/06/02 03:15:43;;;;;;;4.35;3.80;;;17.00;99.90;;;;;;5086993;28;20201;-77
2021/06/02 03:18:50;;;;;;;6.20;4.75;;;17.00;99.90;;;;;;5088119;28;20205;-78
2021/06/02 03:21:37;;;;;;;6.22;4.18;;;16.90;99.90;;;;;;5085238;28;20235;-78
2021/06/02 03:24:17;;;;;;;10.63;4.22;;;16.90;99.90;;;;;;5089613;28;22320;-77
2021/06/02 03:26:51;;;;;;;7.35;3.83;;;17.00;99.90;;;;;;5090403;28;20202;-77
2021/06/02 03:29:28;;;;;;;5.57;4.18;;;17.00;99.90;;;;;;5088135;28;20221;-78
2021/06/02 03:32:11;;;;;;;4.65;4.25;;;17.00;99.90;;;;;;5088460;28;20644;-78
2021/06/02 03:34:48;;;;;;;8.30;4.25;;;16.90;99.90;;;;;;5084022;28;20197;-78
2021/06/02 03:37:27;;;;;;;5.68;3.55;;;16.90;99.90;;;;;;5089097;28;20208;-78
2021/06/02 03:40:02;;;;;;;8.70;4.10;;;16.90;99.90;;;;;;5084608;28;20201;-77
2021/06/02 03:42:42;;;;;;;7.88;4.00;;;16.90;99.90;;;;;;5088921;28;20601;-77
2021/06/02 03:45:35;;;;;;;5.25;4.25;;;16.90;99.90;;;;;;5087539;28;20201;-78
2021/06/02 03:48:32;;;;;;;6.05;4.00;;;16.90;99.90;;;;;;5081041;28;20210;-77
2021/06/02 03:51:26;;;;;;;6.28;4.20;;;17.00;99.90;;;;;;5087349;28;20205;-80
2021/06/02 03:54:12;;;;;;;5.80;3.47;;;16.90;99.90;;;;;;5081997;28;20201;-81
2021/06/02 03:56:57;;;;;;;7.60;4.30;;;17.00;99.90;;;;;;5085208;28;20202;-80
2021/06/02 03:59:35;;;;;;;6.28;3.90;;;17.00;99.90;;;;;;5085197;28;20700;-77
2021/06/02 04:02:07;;;;;;;3.95;3.55;;;16.90;99.90;;;;;;5086656;28;20204;-79
2021/06/02 04:04:41;;;;;;;7.72;3.92;;;16.90;99.90;;;;;;5085643;28;20677;-80
2021/06/02 04:07:12;;;;;;;8.18;4.75;;;16.90;99.90;;;;;;5087842;28;20197;-80
2021/06/02 04:09:43;;;;;;;5.28;3.53;;;17.00;99.90;;;;;;5085228;28;20611;-80
2021/06/02 04:12:21;;;;;;;4.65;3.85;;;17.00;99.90;;;;;;5087289;28;20558;-83
2021/06/02 04:14:55;;;;;;;5.40;3.80;;;16.90;99.90;;;;;;5087824;28;20201;-81
2021/06/02 04:17:22;;;;;;;6.97;4.00;;;16.90;99.90;;;;;;5075226;28;20686;-78
2021/06/02 04:19:51;;;;;;;6.82;3.78;;;16.90;99.90;;;;;;5088483;28;20684;-78
2021/06/02 04:22:21;;;;;;;7.93;4.18;;;16.90;99.90;;;;;;5087784;28;20651;-79
2021/06/02 04:24:49;;;;;;;4.30;3.80;;;16.90;99.90;;;;;;5089348;28;20209;-82
2021/06/02 04:27:18;;;;;;;4.13;3.72;;;16.90;99.90;;;;;;5089037;28;20205;-78
2021/06/02 04:29:47;;;;;;;4.10;3.70;;;16.90;99.90;;;;;;5086955;28;20794;-79
2021/06/02 04:32:14;;;;;;;6.85;4.28;;;17.00;99.90;;;;;;5087721;28;20201;-80
2021/06/02 04:34:43;;;;;;;5.13;4.00;;;16.90;99.90;;;;;;5086090;28;20205;-83
2021/06/02 04:37:10;;;;;;;7.05;3.90;;;16.90;99.90;;;;;;5088064;28;20209;-79
2021/06/02 04:39:41;;;;;;;5.07;3.58;;;17.00;99.90;;;;;;5069722;28;20202;-82
2021/06/02 04:42:09;;;;;;;7.20;2.97;;;17.00;99.90;;;;;;5072975;28;20703;-79
2021/06/02 04:44:37;;;;;;;6.38;3.53;;;17.00;99.90;;;;;;5085497;28;20213;-80
2021/06/02 04:47:05;;;;;;;5.50;2.92;;;17.00;99.90;;;;;;5080890;28;20214;-84
2021/06/02 04:49:39;;;;;;;5.40;3.30;;;17.00;99.90;;;;;;5070493;28;20211;-80
2021/06/02 04:52:53;;;;;;;3.47;3.17;;;17.00;99.90;;;;;;5060042;28;20281;-78
2021/06/02 04:55:41;;;;;;;3.03;2.60;;;17.10;99.90;;;;;;5058994;28;20206;-84
2021/06/02 04:58:28;;;;;;;4.05;3.65;;;17.00;99.90;;;;;;5070299;28;20202;-78
2021/06/02 05:01:16;;;;;;;5.30;3.47;;;17.10;99.90;;;;;;5058867;28;20248;-78
2021/06/02 05:04:34;;;;;;;2.72;2.55;;;17.20;99.90;;;;;;5070192;28;20367;-77
2021/06/02 05:07:40;;;;;;;3.55;2.75;;;17.10;99.90;;;;;;5070568;28;20206;-77
2021/06/02 05:10:46;;;;;;;4.80;3.25;;;17.20;99.90;;;;;;5065566;28;20206;-78
2021/06/02 05:14:03;;;;;;;3.72;3.33;;;17.20;99.90;;;;;;5061976;28;20205;-76
2021/06/02 05:16:45;;;;;;;3.63;3.33;;;17.20;99.90;;;;;;5060372;28;20581;-79
2021/06/02 05:20:15;;;;;;;3.53;3.17;;;17.10;99.90;;;;;;5070453;28;20205;-77
2021/06/02 05:23:27;;;;;;;3.60;3.30;;;17.10;99.90;;;;;;5042696;28;20332;-78
2021/06/02 05:26:24;;;;;;;3.10;2.70;;;17.20;99.90;;;;;;5069099;28;20612;-81
2021/06/02 05:29:22;;;;;;;4.70;2.88;;;17.20;99.90;;;;;;5072987;28;20197;-73
2021/06/02 05:32:43;;;;;;;4.57;3.28;;;17.30;99.90;;;;;;5065577;28;20670;-75
2021/06/02 05:35:41;;;;;;;2.83;2.50;;;17.40;99.90;;;;;;5058119;28;20214;-77
2021/06/02 05:38:53;;;;;;;3.58;3.03;;;17.30;99.90;;;;;;5055894;28;20218;-76
2021/06/02 05:41:53;;;;;;;3.30;3.00;;;17.40;99.90;;;;;;5068580;28;20202;-81
2021/06/02 05:44:58;;;;;;;3.45;2.83;;;17.30;99.90;;;;;;5065746;28;20229;-76
2021/06/02 05:47:51;;;;;;;3.20;3.00;;;17.30;99.90;;;;;;5069169;28;20267;-78
2021/06/02 05:50:53;;;;;;;5.65;3.17;;;17.50;99.90;;;;;;5068333;28;20210;-75
2021/06/02 05:53:53;;;;;;;3.25;2.67;;;17.60;99.90;;;;;;5074973;28;20669;-78
2021/06/02 05:56:55;;;;;;;2.65;2.45;;;17.50;99.90;;;;;;5073804;28;20236;-75
2021/06/02 06:00:07;;;;;;;3.78;3.50;;;17.50;99.90;;;;;;5068664;28;20220;-73
2021/06/02 06:03:03;;;;;;;6.68;6.07;;;17.50;99.90;;;;;;5045381;28;20241;-73
2021/06/02 06:05:49;;;;;;;7.65;6.95;;;17.60;99.90;;;;;;5080349;28;20213;-75
2021/06/02 06:08:52;;;;;;;6.90;6.20;;;17.60;99.90;;;;;;5073725;28;20746;-76
2021/06/02 06:12:06;;;;;;;11.40;7.88;;;17.60;99.90;;;;;;5082182;28;20563;-73
2021/06/02 06:15:11;;;;;;;7.82;7.13;;;17.60;99.90;;;;;;5046561;28;20258;-79
2021/06/02 06:17:51;;;;;;;3.67;3.38;;;17.70;99.90;;;;;;5075121;28;20197;-79
2021/06/02 06:20:52;;;;;;;6.30;3.40;;;17.70;99.90;;;;;;5070690;28;20210;-72
2021/06/02 06:23:51;;;;;;;4.40;2.90;;;17.80;99.90;;;;;;5068988;28;20304;-76
2021/06/02 06:26:28;;;;;;;3.00;2.55;;;18.00;99.90;;;;;;5074797;28;20251;-78
2021/06/02 06:29:01;;;;;;;3.00;2.75;;;17.90;99.90;;;;;;5071115;28;20264;-74
2021/06/02 06:31:32;;;;;;;7.93;2.70;;;18.00;99.90;;;;;;5070618;28;20194;-76
2021/06/02 06:34:06;;;;;;;2.63;2.38;;;17.90;99.90;;;;;;5086695;28;20345;-79
2021/06/02 06:36:34;;;;;;;2.65;2.45;;;18.10;99.90;;;;;;5067255;28;20202;-76
2021/06/02 06:39:12;;;;;;;2.92;2.42;;;18.10;99.90;;;;;;5074709;28;20211;-73
2021/06/02 06:41:40;;;;;;;2.70;2.50;;;18.30;99.90;;;;;;5072515;28;20202;-78
2021/06/02 06:44:07;;;;;;;3.67;2.45;;;18.40;99.90;;;;;;5073514;28;20717;-77
2021/06/02 06:46:36;;;;;;;2.45;2.05;;;18.80;99.90;;;;;;5071965;28;20252;-77
2021/06/02 06:49:07;;;;;;;2.50;2.30;;;19.40;99.90;;;;;;5068011;28;20271;-76
2021/06/02 06:51:36;;;;;;;3.33;2.22;;;19.60;99.90;;;;;;5072631;28;20213;-76
2021/06/02 06:54:03;;;;;;;2.80;2.33;;;19.90;99.90;;;;;;5073981;28;20585;-78
2021/06/02 06:56:31;;;;;;;6.13;2.50;;;20.10;99.90;;;;;;5072775;28;20224;-77
2021/06/02 06:58:59;;;;;;;5.30;2.50;;;20.20;99.90;;;;;;5059342;28;20665;-78
2021/06/02 07:01:26;;;;;;;3.67;2.38;;;19.70;99.90;;;;;;5071576;28;20232;-76
2021/06/02 07:03:55;;;;;;;3.05;2.75;;;20.10;99.90;;;;;;5075361;28;20256;-77
2021/06/02 07:06:23;;;;;;;2.72;2.17;;;20.10;99.90;;;;;;5074704;28;20209;-76
2021/06/02 07:08:50;;;;;;;2.25;2.05;;;20.00;99.90;;;;;;5077102;28;20681;-75
2021/06/02 07:11:19;;;;;;;2.83;2.22;;;19.60;99.90;;;;;;5075664;28;20202;-76
2021/06/02 07:13:47;;;;;;;2.50;2.33;;;19.70;99.90;;;;;;5078236;28;20213;-75
2021/06/02 07:16:15;;;;;;;3.83;2.67;;;19.50;99.90;;;;;;5076210;28;20268;-76
2021/06/02 07:18:44;;;;;;;5.20;2.65;;;19.40;99.90;;;;;;5076741;28;20206;-74
2021/06/02 07:21:12;;;;;;;4.22;1.80;;;19.40;99.90;;;;;;5076529;28;20214;-74
2021/06/02 07:23:40;;;;;;;2.17;1.98;;;19.60;99.90;;;;;;5082212;28;20233;-77
2021/06/02 07:26:08;;;;;;;3.20;2.90;;;19.70;99.90;;;;;;5086697;28;20205;-79
2021/06/02 07:28:36;;;;;;;3.17;2.88;;;19.50;99.90;;;;;;5079994;28;20240;-75
2021/06/02 07:31:03;;;;;;;2.70;2.50;;;19.50;99.90;;;;;;5071503;28;20214;-75
2021/06/02 07:33:30;;;;;;;2.72;2.40;;;19.70;99.90;;;;;;5071795;28;20217;-75
2021/06/02 07:35:57;;;;;;;3.67;2.05;;;19.80;99.90;;;;;;5072185;28;20673;-74
2021/06/02 07:38:23;;;;;;;4.20;2.92;;;19.80;99.90;;;;;;5064266;28;20202;-74
2021/06/02 07:40:52;;;;;;;2.72;2.45;;;20.10;99.90;;;;;;5078796;28;20202;-73
2021/06/02 07:43:18;;;;;;;2.40;2.08;;;20.00;99.90;;;;;;5074226;28;20253;-74
2021/06/02 07:45:45;;;;;;;2.80;2.60;;;19.70;99.90;;;;;;5073309;28;20202;-73
2021/06/02 07:48:11;;;;;;;3.50;2.70;;;19.90;99.90;;;;;;5084284;28;20626;-73
2021/06/02 07:50:38;;;;;;;15.93;3.38;;;19.90;99.90;;;;;;5070881;28;20210;-73
2021/06/02 07:53:05;;;;;;;4.28;2.80;;;19.60;99.90;;;;;;5083491;28;20198;-75
2021/06/02 07:55:31;;;;;;;3.00;2.10;;;19.50;99.90;;;;;;5072523;28;20202;-73
2021/06/02 07:58:00;;;;;;;4.55;3.33;;;19.50;99.90;;;;;;5071594;28;20681;-74
2021/06/02 08:00:27;;;;;;;3.78;2.25;;;19.50;99.90;;;;;;5070978;28;20688;-78
2021/06/02 08:02:54;;;;;;;3.13;2.45;;;19.50;99.90;;;;;;5070929;28;20225;-85
2021/06/02 08:05:21;;;;;;;4.03;1.90;;;19.40;99.90;;;;;;5071680;28;20228;-72
2021/06/02 08:07:48;;;;;;;3.15;2.75;;;19.50;99.90;;;;;;5071661;28;20560;-83
2021/06/02 08:10:17;;;;;;;5.88;2.65;;;19.50;99.90;;;;;;5071209;28;20678;-79
2021/06/02 08:12:44;;;;;;;3.17;1.95;;;19.50;99.90;;;;;;5071391;28;20240;-84
2021/06/02 08:15:13;;;;;;;3.80;2.35;;;19.40;99.90;;;;;;5071893;28;20251;-73
2021/06/02 08:17:40;;;;;;;3.15;2.83;;;19.50;99.90;;;;;;5070097;28;20210;-80
2021/06/02 08:20:09;;;;;;;5.30;2.85;;;19.50;99.90;;;;;;5071758;28;20727;-83
2021/06/02 08:22:36;;;;;;;2.55;2.33;;;19.30;99.90;;;;;;5068560;28;20213;-80
2021/06/02 08:25:04;;;;;;;3.53;2.78;;;19.40;99.90;;;;;;5073033;28;20206;-78
2021/06/02 08:27:31;;;;;;;4.95;2.15;;;19.50;99.90;;;;;;5077893;28;20589;-81
2021/06/02 08:29:58;;;;;;;3.47;3.17;;;19.40;99.90;;;;;;5068854;28;20202;-85
2021/06/02 08:32:26;;;;;;;4.63;2.70;;;19.50;99.90;;;;;;5073282;28;20206;-77
2021/06/02 08:34:53;;;;;;;5.15;3.00;;;19.50;99.90;;;;;;5072521;28;20205;-77
2021/06/02 08:37:19;;;;;;;3.25;2.95;;;19.40;99.90;;;;;;5075898;28;20210;-85
2021/06/02 08:39:46;;;;;;;3.38;3.13;;;19.50;99.90;;;;;;5077499;28;20210;-76
2021/06/02 08:42:13;;;;;;;4.28;2.60;;;19.80;99.90;;;;;;5074716;28;20255;-82
2021/06/02 08:44:40;;;;;;;3.00;2.38;;;19.90;99.90;;;;;;5079509;28;20725;-83
2021/06/02 08:47:08;;;;;;;3.28;2.03;;;19.90;99.90;;;;;;5082546;28;20202;-84
2021/06/02 08:49:36;;;;;;;2.55;2.33;;;20.10;99.90;;;;;;5068672;28;20206;-74
2021/06/02 08:52:05;;;;;;;3.08;2.78;;;20.10;99.90;;;;;;5076391;28;20217;-80
2021/06/02 08:54:31;;;;;;;3.53;2.70;;;20.20;99.90;;;;;;5071528;28;20214;-81
2021/06/02 08:57:01;;;;;;;3.60;2.30;;;20.10;99.90;;;;;;5070280;28;20217;-78
2021/06/02 08:59:27;;;;;;;3.45;3.03;;;20.40;99.90;;;;;;5070112;28;20214;-78
2021/06/02 09:01:54;;;;;;;5.50;2.83;;;20.30;99.90;;;;;;5073617;28;20597;-78
2021/06/02 09:04:20;;;;;;;5.78;3.08;;;20.40;99.90;;;;;;5070648;28;20225;-82
2021/06/02 09:06:49;;;;;;;2.58;2.38;;;20.30;99.90;;;;;;5070309;28;20662;-81
2021/06/02 09:09:17;;;;;;;4.57;2.47;;;20.40;99.90;;;;;;5070594;28;20684;-74
2021/06/02 09:11:45;;;;;;;3.35;2.38;;;20.70;99.90;;;;;;5071551;28;20209;-81
2021/06/02 09:14:25;;;;;;;5.65;2.53;;;20.70;99.90;;;;;;5070558;28;20577;-80
2021/06/02 09:16:54;;;;;;;6.13;2.83;;;21.20;99.90;;;;;;5071996;28;20259;-76
2021/06/02 09:19:34;;;;;;;2.10;1.90;;;21.40;99.90;;;;;;5074402;28;20213;-81
2021/06/02 09:22:04;;;;;;;2.67;2.40;;;21.60;99.90;;;;;;5069566;28;20701;-74
2021/06/02 09:24:48;;;;;;;2.42;2.22;;;21.40;99.90;;;;;;5069578;28;20241;-73
2021/06/02 09:27:15;;;;;;;2.20;2.10;;;21.70;99.90;;;;;;5069454;28;20243;-73
2021/06/02 09:29:52;;;;;;;3.50;3.15;;;22.40;99.90;;;;;;5074782;28;20217;-73
2021/06/02 09:32:20;;;;;;;3.33;3.03;;;22.70;99.90;;;;;;5070035;28;20197;-73
2021/06/02 09:34:47;;;;;;;3.72;2.78;;;22.90;99.90;;;;;;5070090;28;20700;-73
2021/06/02 09:37:15;;;;;;;2.63;2.42;;;22.80;99.90;;;;;;5069888;28;20209;-73
2021/06/02 09:39:42;;;;;;;5.53;2.10;;;22.10;99.90;;;;;;5069467;28;20206;-73
2021/06/02 09:42:23;;;;;;;2.83;2.15;;;22.20;99.90;;;;;;5069831;28;20695;-73
2021/06/02 09:45:04;;;;;;;3.00;2.75;;;22.10;99.90;;;;;;5069391;28;20222;-74
2021/06/02 09:47:41;;;;;;;6.18;2.80;;;21.50;99.90;;;;;;5070962;28;20677;-74
2021/06/02 09:50:09;;;;;;;3.83;2.35;;;21.40;99.90;;;;;;5060465;28;20665;-73
2021/06/02 09:52:44;;;;;;;5.10;2.25;;;21.30;99.90;;;;;;5069495;28;20218;-74
2021/06/02 09:55:16;;;;;;;2.30;1.92;;;21.30;99.90;;;;;;5060076;28;20205;-75
2021/06/02 09:57:43;;;;;;;3.80;2.80;;;21.30;99.90;;;;;;5069077;28;20575;-73
2021/06/02 10:00:11;;;;;;;3.13;2.40;;;21.20;99.90;;;;;;5068706;28;20210;-73
2021/06/02 10:02:38;;;;;;;2.53;2.20;;;21.20;99.90;;;;;;5068952;28;20666;-73
2021/06/02 10:05:06;;;;;;;2.38;2.17;;;21.40;99.90;;;;;;5079311;28;20274;-74
2021/06/02 10:07:34;;;;;;;4.25;2.47;;;21.30;99.90;;;;;;5076095;28;20252;-74
2021/06/02 10:10:10;;;;;;;3.60;2.55;;;21.30;99.90;;;;;;5082004;28;20209;-75
2021/06/02 10:12:36;;;;;;;3.58;3.03;;;21.20;99.90;;;;;;5063371;28;20295;-74
2021/06/02 10:15:05;;;;;;;4.07;3.13;;;21.50;99.90;;;;;;5072053;28;20637;-75
2021/06/02 10:17:33;;;;;;;2.67;2.17;;;21.50;99.90;;;;;;5071821;28;20209;-73
2021/06/02 10:20:07;;;;;;;2.70;2.42;;;21.40;99.90;;;;;;5071739;28;20206;-73
2021/06/02 10:22:34;;;;;;;37.63;23.63;;;21.30;99.90;;;;;;5076216;28;20209;-72
2021/06/02 10:25:02;;;;;;;4.50;3.72;;;21.40;99.90;;;;;;5073160;28;20241;-74
2021/06/02 10:27:30;;;;;;;3.67;3.33;;;21.30;99.90;;;;;;5072340;28;20584;-73
2021/06/02 10:29:57;;;;;;;3.17;2.92;;;21.30;99.90;;;;;;5072719;28;20210;-73
2021/06/02 10:32:24;;;;;;;3.47;3.17;;;21.30;99.90;;;;;;5072776;28;20210;-72
2021/06/02 10:34:52;;;;;;;3.42;3.15;;;21.90;99.90;;;;;;5073419;28;20202;-72
2021/06/02 10:37:21;;;;;;;3.30;2.50;;;22.50;99.90;;;;;;5073297;28;20218;-73
2021/06/02 10:39:56;;;;;;;3.95;2.78;;;22.60;99.90;;;;;;5072868;28;20214;-72
2021/06/02 10:42:33;;;;;;;3.60;2.75;;;22.60;99.90;;;;;;5073071;28;20321;-74
2021/06/02 10:45:05;;;;;;;3.88;3.08;;;22.80;99.90;;;;;;5067282;28;20229;-77
2021/06/02 10:47:32;;;;;;;3.88;3.40;;;22.70;99.90;;;;;;5072963;28;20289;-77
2021/06/02 10:49:58;;;;;;;3.38;2.65;;;23.30;99.90;;;;;;5066403;28;20217;-74
2021/06/02 10:52:49;;;;;;;4.22;2.65;;;23.60;99.90;;;;;;5072583;28;20199;-76
2021/06/02 10:55:34;;;;;;;3.55;3.25;;;23.50;99.90;;;;;;5061869;28;20233;-73
2021/06/02 10:58:20;;;;;;;3.08;2.70;;;23.90;99.90;;;;;;5073148;28;20202;-76
2021/06/02 11:00:48;;;;;;;3.17;2.45;;;23.70;99.90;;;;;;5064768;28;20746;-74
2021/06/02 11:03:19;;;;;;;2.95;2.75;;;23.90;99.90;;;;;;5064990;28;20237;-74
2021/06/02 11:05:46;;;;;;;3.45;2.90;;;23.80;99.90;;;;;;5071101;28;20214;-75
2021/06/02 11:08:12;;;;;;;3.03;2.30;;;23.60;99.90;;;;;;5072814;28;20255;-77
2021/06/02 11:10:39;;;;;;;3.90;2.38;;;23.20;99.90;;;;;;5077982;28;20209;-75
2021/06/02 11:13:09;;;;;;;2.67;2.47;;;23.10;99.90;;;;;;5072421;28;20224;-76
2021/06/02 11:15:46;;;;;;;3.78;2.88;;;23.90;99.90;;;;;;5079324;28;20700;-73
2021/06/02 11:18:22;;;;;;;4.93;3.42;;;24.10;99.90;;;;;;5068556;28;20214;-79
2021/06/02 11:20:50;;;;;;;3.53;2.75;;;23.50;99.90;;;;;;5071750;28;20615;-79
2021/06/02 11:23:18;;;;;;;2.35;2.25;;;23.20;99.90;;;;;;5075217;28;20232;-77
2021/06/02 11:25:46;;;;;;;3.00;2.80;;;23.30;99.90;;;;;;5075241;28;20682;-81
2021/06/02 11:28:42;;;;;;;2.97;2.70;;;23.90;99.90;;;;;;5083965;28;20673;-80
2021/06/02 11:31:24;;;;;;;2.42;2.22;;;23.10;99.90;;;;;;5081667;28;20700;-79
2021/06/02 11:33:52;;;;;;;2.88;2.67;;;22.90;99.90;;;;;;5086965;28;20197;-79
2021/06/02 11:36:19;;;;;;;4.30;2.50;;;23.20;99.90;;;;;;5081804;28;20206;-73
2021/06/02 11:38:46;;;;;;;3.17;2.90;;;23.20;99.90;;;;;;5087313;28;20205;-72
2021/06/02 11:41:14;;;;;;;2.40;2.20;;;23.20;99.90;;;;;;5073792;28;20268;-77
2021/06/02 11:43:40;;;;;;;4.15;2.72;;;23.50;99.90;;;;;;5079070;28;20225;-75
2021/06/02 11:46:07;;;;;;;2.20;2.00;;;23.70;99.90;;;;;;5087420;28;20209;-72
2021/06/02 11:48:38;;;;;;;2.63;2.42;;;23.90;99.90;;;;;;5074751;28;20214;-73
2021/06/02 11:51:07;;;;;;;3.00;2.78;;;23.50;99.90;;;;;;5072316;28;20206;-74
2021/06/02 11:53:42;;;;;;;2.35;1.95;;;24.20;99.90;;;;;;5072397;28;20252;-74
2021/06/02 11:56:09;;;;;;;5.63;3.47;;;24.30;99.90;;;;;;5072150;28;20206;-81
2021/06/02 11:58:36;;;;;;;2.97;2.78;;;23.50;99.90;;;;;;5074790;28;20693;-77
2021/06/02 12:01:03;;;;;;;2.80;2.60;;;23.50;99.90;;;;;;5078334;28;20209;-79
2021/06/02 12:03:30;;;;;;;2.85;2.58;;;23.70;99.90;;;;;;5078156;28;20317;-78
2021/06/02 12:05:58;;;;;;;4.95;2.50;;;24.40;99.90;;;;;;5081627;28;20297;-79
2021/06/02 12:08:25;;;;;;;3.08;2.30;;;24.00;99.90;;;;;;5071506;28;20209;-78
2021/06/02 12:10:53;;;;;;;2.75;2.45;;;24.00;99.90;;;;;;5074334;28;20203;-76
2021/06/02 12:13:22;;;;;;;3.75;2.92;;;23.90;99.90;;;;;;5074189;28;20224;-83
2021/06/02 12:15:50;;;;;;;5.80;2.90;;;23.30;99.90;;;;;;5075046;28;20202;-77
2021/06/02 12:18:31;;;;;;;3.45;3.15;;;23.20;99.90;;;;;;5076192;28;20222;-81
2021/06/02 12:21:15;;;;;;;4.60;2.95;;;23.60;99.90;;;;;;5081719;28;20209;-76
2021/06/02 12:23:53;;;;;;;3.83;2.50;;;23.50;99.90;;;;;;5073791;28;20218;-83
2021/06/02 12:26:26;;;;;;;3.47;2.88;;;23.60;99.90;;;;;;5058429;28;20217;-81
2021/06/02 12:28:54;;;;;;;2.58;2.38;;;23.70;99.90;;;;;;5073780;28;20210;-76
2021/06/02 12:31:32;;;;;;;2.58;2.40;;;23.60;99.90;;;;;;5071246;28;20689;-78
2021/06/02 12:34:04;;;;;;;4.40;2.65;;;23.30;99.90;;;;;;5070882;28;20209;-81
2021/06/02 12:36:33;;;;;;;3.85;2.95;;;23.70;99.90;;;;;;5058898;28;20208;-84
2021/06/02 12:39:02;;;;;;;3.38;3.08;;;23.90;99.90;;;;;;5071079;28;20210;-83
2021/06/02 12:41:29;;;;;;;6.43;3.25;;;24.00;99.90;;;;;;5057212;28;20228;-78
2021/06/02 12:44:01;;;;;;;3.35;2.72;;;24.10;99.90;;;;;;5071356;28;20287;-77
2021/06/02 12:46:27;;;;;;;4.40;3.10;;;23.80;99.90;;;;;;5070463;28;20293;-82
2021/06/02 12:48:54;;;;;;;6.25;3.05;;;23.50;99.90;;;;;;5070900;28;20210;-80
2021/06/02 12:51:23;;;;;;;3.80;3.00;;;23.90;99.90;;;;;;5072463;28;20206;-81
2021/06/02 12:53:52;;;;;;;3.58;2.47;;;24.20;99.90;;;;;;5070965;28;20212;-83
2021/06/02 12:56:20;;;;;;;6.43;3.47;;;24.10;99.90;;;;;;5070810;28;20715;-80
2021/06/02 12:58:52;;;;;;;3.03;2.80;;;24.00;99.90;;;;;;5071187;28;20280;-80
2021/06/02 13:01:19;;;;;;;6.50;3.85;;;24.10;99.90;;;;;;5071444;28;20217;-81
2021/06/02 13:03:47;;;;;;;7.15;4.20;;;24.00;99.90;;;;;;5070910;28;20222;-81
2021/06/02 13:06:16;;;;;;;4.30;2.90;;;24.00;99.90;;;;;;5071870;28;20198;-83
2021/06/02 13:08:43;;;;;;;3.50;3.25;;;24.00;99.90;;;;;;5070351;28;20275;-82
2021/06/02 13:11:12;;;;;;;4.38;2.67;;;24.20;99.90;;;;;;5072056;28;20212;-78
2021/06/02 13:13:40;;;;;;;3.30;3.00;;;24.30;99.90;;;;;;5070832;28;22127;-77
2021/06/02 13:16:08;;;;;;;5.57;3.60;;;24.30;99.90;;;;;;5075533;28;20748;-78
2021/06/02 13:18:35;;;;;;;5.28;2.65;;;24.50;99.90;;;;;;5088385;28;20701;-76
2021/06/02 13:21:12;;;;;;;5.45;2.70;;;24.60;99.90;;;;;;5084550;28;20206;-75
2021/06/02 13:23:39;;;;;;;3.65;2.35;;;24.60;99.90;;;;;;5069891;28;20225;-73
2021/06/02 13:26:07;;;;;;;2.58;2.33;;;24.50;99.90;;;;;;5069999;28;20224;-76